createdAt,value
2018-02-17T00:00:45.709Z,0.15
2018-02-17T00:01:48.211Z,0.20
2018-02-17T00:02:50.686Z,0.09
2018-02-17T00:03:53.178Z,0.28
2018-02-17T00:04:55.691Z,0.28
2018-02-17T00:05:58.178Z,0.24
2018-02-17T00:07:00.669Z,0.13
2018-02-17T00:08:03.171Z,0.05
2018-02-17T00:09:05.673Z,-0.05
2018-02-17T00:10:08.155Z,-0.03
2018-02-17T00:11:10.643Z,0.09
2018-02-17T00:12:13.134Z,0.12
2018-02-17T00:13:15.612Z,0.09
2018-02-17T00:14:18.102Z,0.13
2018-02-17T00:15:20.609Z,0.29
2018-02-17T00:16:23.079Z,0.28
2018-02-17T00:17:25.564Z,0.26
2018-02-17T00:18:28.050Z,0.35
2018-02-17T00:19:30.528Z,0.34
2018-02-17T00:20:33.015Z,0.34
2018-02-17T00:21:35.503Z,0.26
2018-02-17T00:22:37.986Z,0.30
2018-02-17T00:23:40.528Z,0.23
2018-02-17T00:24:43.013Z,0.21
2018-02-17T00:25:45.497Z,0.28
2018-02-17T00:26:47.973Z,0.26
2018-02-17T00:27:50.462Z,0.22
2018-02-17T00:28:52.935Z,0.22
2018-02-17T00:29:55.437Z,0.30
2018-02-17T00:30:57.927Z,0.19
2018-02-17T00:32:00.414Z,0.14
2018-02-17T00:33:02.904Z,0.06
2018-02-17T00:34:05.410Z,0.10
2018-02-17T00:35:07.913Z,0.29
2018-02-17T00:36:10.407Z,0.25
2018-02-17T00:37:12.905Z,0.39
2018-02-17T00:38:15.465Z,0.31
2018-02-17T00:39:18.024Z,0.29
2018-02-17T00:40:20.513Z,0.34
2018-02-17T00:41:23.028Z,0.31
2018-02-17T00:42:25.500Z,0.39
2018-02-17T00:43:27.975Z,0.29
2018-02-17T00:44:30.448Z,0.26
2018-02-17T00:45:32.944Z,0.22
2018-02-17T00:46:35.462Z,0.22
2018-02-17T00:47:37.948Z,0.27
2018-02-17T00:48:40.459Z,0.15
2018-02-17T00:49:42.941Z,0.19
2018-02-17T00:50:45.431Z,0.34
2018-02-17T00:51:47.909Z,0.26
2018-02-17T00:52:50.391Z,0.25
2018-02-17T00:53:52.867Z,0.40
2018-02-17T00:54:55.402Z,0.39
2018-02-17T00:55:57.895Z,0.39
2018-02-17T00:57:00.378Z,0.47
2018-02-17T00:58:02.861Z,0.59
2018-02-17T00:59:05.345Z,0.47
2018-02-17T01:00:07.819Z,0.50
2018-02-17T01:01:10.295Z,0.54
2018-02-17T01:02:12.767Z,0.61
2018-02-17T01:03:15.258Z,0.60
2018-02-17T01:04:17.757Z,0.63
2018-02-17T01:05:20.259Z,0.66
2018-02-17T01:06:22.738Z,0.65
2018-02-17T01:07:25.233Z,0.71
2018-02-17T01:08:27.718Z,0.76
2018-02-17T01:09:30.220Z,0.82
2018-02-17T01:10:32.695Z,0.69
2018-02-17T01:11:35.167Z,0.61
2018-02-17T01:12:37.661Z,0.83
2018-02-17T01:13:40.146Z,0.74
2018-02-17T01:14:42.634Z,0.77
2018-02-17T01:15:45.130Z,0.71
2018-02-17T01:16:47.629Z,0.83
2018-02-17T01:17:50.114Z,0.70
2018-02-17T01:18:52.599Z,0.54
2018-02-17T01:19:55.080Z,0.53
2018-02-17T01:20:57.551Z,0.67
2018-02-17T01:22:00.037Z,0.76
2018-02-17T01:23:02.522Z,0.92
2018-02-17T01:24:05.017Z,1.09
2018-02-17T01:25:07.493Z,1.04
2018-02-17T01:26:10.002Z,0.90
2018-02-17T01:27:12.523Z,0.87
2018-02-17T01:28:15.095Z,0.79
2018-02-17T01:29:17.568Z,0.76
2018-02-17T01:30:20.040Z,0.78
2018-02-17T01:31:22.576Z,0.76
2018-02-17T01:32:25.049Z,0.73
2018-02-17T01:33:27.542Z,0.79
2018-02-17T01:34:30.034Z,0.71
2018-02-17T01:35:32.508Z,0.71
2018-02-17T01:36:34.980Z,0.69
2018-02-17T01:37:37.529Z,0.97
2018-02-17T01:38:40.014Z,1.02
2018-02-17T01:39:42.489Z,1.21
2018-02-17T01:40:44.959Z,1.17
2018-02-17T01:41:47.444Z,1.01
2018-02-17T01:42:49.920Z,1.15
2018-02-17T01:43:52.411Z,1.07
2018-02-17T01:44:54.910Z,0.98
2018-02-17T01:45:57.402Z,1.09
2018-02-17T01:46:59.876Z,1.05
2018-02-17T01:48:02.347Z,0.98
2018-02-17T01:49:04.845Z,0.99
2018-02-17T07:57:40.998Z,3.19
2018-02-17T07:58:43.463Z,3.12
2018-02-17T07:59:45.946Z,3.04
2018-02-17T08:00:48.441Z,3.15
2018-02-17T08:01:50.929Z,3.13
2018-02-17T08:02:53.399Z,3.05
2018-02-17T08:03:55.887Z,3.11
2018-02-17T08:04:58.351Z,3.06
2018-02-17T08:06:00.836Z,3.08
2018-02-17T08:07:03.321Z,3.15
2018-02-17T08:08:05.810Z,3.06
2018-02-17T08:09:08.283Z,3.03
2018-02-17T08:10:10.800Z,3.08
2018-02-17T08:11:13.495Z,3.03
2018-02-17T08:12:16.007Z,3.24
2018-02-17T08:13:18.466Z,3.13
2018-02-17T08:14:20.935Z,3.15
2018-02-17T08:15:23.485Z,3.27
2018-02-17T08:16:25.946Z,3.39
2018-02-17T08:17:28.466Z,3.36
2018-02-17T08:18:30.942Z,3.40
2018-02-17T08:19:33.407Z,3.58
2018-02-17T08:20:35.904Z,3.20
2018-02-17T08:21:38.379Z,3.33
2018-02-17T08:22:40.847Z,3.35
2018-02-17T08:23:43.682Z,3.36
2018-02-17T08:24:46.166Z,3.35
2018-02-17T08:25:48.679Z,3.36
2018-02-17T08:26:51.161Z,3.41
2018-02-17T08:27:53.632Z,3.48
2018-02-17T08:28:56.109Z,3.31
2018-02-17T08:29:58.593Z,3.46
2018-02-17T08:31:01.109Z,3.60
2018-02-17T08:32:03.672Z,3.56
2018-02-17T08:33:06.139Z,3.55
2018-02-17T08:34:08.615Z,3.48
2018-02-17T08:35:11.096Z,3.57
2018-02-17T08:36:13.599Z,3.56
2018-02-17T08:37:16.075Z,3.60
2018-02-17T08:38:18.564Z,3.53
2018-02-17T08:39:21.039Z,3.51
2018-02-17T08:40:23.498Z,3.58
2018-02-17T08:41:26.004Z,3.52
2018-02-17T08:42:28.484Z,3.76
2018-02-17T08:43:30.959Z,3.77
2018-02-17T08:44:33.452Z,3.68
2018-02-17T08:45:35.956Z,3.74
2018-02-17T08:46:38.507Z,3.71
2018-02-17T08:47:40.980Z,3.81
2018-02-17T08:48:43.521Z,3.80
2018-02-17T08:49:45.997Z,3.96
2018-02-17T08:50:48.459Z,4.14
2018-02-17T08:51:50.948Z,4.11
2018-02-17T08:52:53.419Z,4.01
2018-02-17T08:53:55.933Z,4.15
2018-02-17T08:54:58.412Z,4.22
2018-02-17T08:56:00.889Z,4.26
2018-02-17T08:57:03.387Z,4.17
2018-02-17T08:58:05.890Z,4.17
2018-02-17T08:59:08.386Z,4.16
2018-02-17T09:00:10.861Z,4.35
2018-02-17T09:01:13.347Z,4.28
2018-02-17T09:02:15.827Z,4.41
2018-02-17T09:03:18.299Z,4.47
2018-02-17T09:04:20.789Z,4.56
2018-02-17T09:05:23.273Z,4.66
2018-02-17T09:06:25.762Z,4.63
2018-02-17T09:07:28.279Z,4.83
2018-02-17T09:08:30.759Z,4.91
2018-02-17T09:09:33.277Z,5.00
2018-02-17T09:10:48.577Z,5.07
2018-02-17T09:11:51.070Z,5.10
2018-02-17T09:12:53.572Z,5.11
2018-02-17T09:13:56.057Z,4.83
2018-02-17T09:14:58.545Z,4.89
2018-02-17T09:16:01.025Z,5.02
2018-02-17T09:17:03.566Z,5.01
2018-02-17T09:18:06.181Z,5.17
2018-02-17T09:19:08.679Z,5.24
2018-02-17T09:20:11.176Z,5.06
2018-02-17T09:21:13.656Z,5.02
2018-02-17T09:22:16.164Z,5.17
2018-02-17T09:23:18.666Z,5.22
2018-02-17T09:24:21.157Z,5.38
2018-02-17T09:25:23.635Z,5.41
2018-02-17T09:26:26.117Z,5.50
2018-02-17T09:27:28.634Z,5.46
2018-02-17T09:28:31.219Z,5.60
2018-02-17T09:29:33.727Z,5.63
2018-02-17T09:30:36.928Z,5.72
2018-02-17T09:31:39.741Z,5.75
2018-02-17T09:32:42.295Z,5.66
2018-02-17T09:33:44.849Z,5.68
2018-02-17T09:34:47.353Z,5.70
2018-02-17T09:35:49.841Z,5.70
2018-02-17T09:36:52.320Z,5.85
2018-02-17T09:37:54.821Z,5.94
2018-02-17T09:38:57.391Z,5.93
2018-02-17T09:39:59.872Z,5.48
2018-02-17T09:41:02.458Z,5.56
2018-02-17T09:42:04.991Z,5.48
2018-02-17T09:43:07.475Z,5.38
2018-02-17T09:44:10.031Z,5.48
2018-02-17T09:45:12.513Z,5.46
2018-02-17T09:46:15.011Z,5.49
2018-02-17T09:47:17.516Z,5.60
2018-02-17T09:48:20.017Z,5.60
2018-02-17T09:49:22.519Z,5.74
2018-02-17T09:50:24.993Z,5.63
2018-02-17T09:51:27.496Z,5.56
2018-02-17T09:52:30.060Z,5.56
2018-02-17T09:53:32.541Z,5.39
2018-02-17T09:54:35.035Z,5.33
2018-02-17T09:55:37.507Z,5.39
2018-02-17T09:56:40.047Z,5.51
2018-02-17T09:57:42.624Z,5.75
2018-02-17T09:58:45.163Z,5.89
2018-02-17T09:59:47.667Z,5.71
2018-02-17T10:00:50.143Z,5.58
2018-02-17T10:01:52.634Z,5.82
2018-02-17T10:02:55.117Z,5.93
2018-02-17T10:03:57.623Z,5.51
2018-02-17T10:05:00.126Z,5.75
2018-02-17T10:06:02.603Z,5.92
2018-02-17T10:07:05.100Z,5.95
2018-02-17T10:08:07.586Z,5.91
2018-02-17T10:09:10.125Z,5.77
2018-02-17T10:10:12.633Z,5.90
2018-02-17T10:11:15.130Z,6.10
2018-02-17T10:12:17.628Z,6.03
2018-02-17T10:13:20.099Z,6.12
2018-02-17T10:14:22.594Z,6.29
2018-02-17T10:15:25.112Z,6.38
2018-02-17T10:16:27.590Z,6.21
2018-02-17T10:17:30.068Z,6.34
2018-02-17T10:18:32.557Z,6.33
2018-02-17T10:19:35.345Z,6.55
2018-02-17T10:20:37.865Z,6.67
2018-02-17T10:21:40.489Z,6.87
2018-02-17T10:22:43.070Z,6.93
2018-02-17T10:23:45.552Z,7.08
2018-02-17T10:24:48.041Z,7.08
2018-02-17T10:25:50.532Z,7.16
2018-02-17T10:26:53.081Z,7.42
2018-02-17T10:27:55.567Z,7.66
2018-02-17T10:28:58.061Z,7.34
2018-02-17T10:30:00.554Z,7.15
2018-02-17T10:31:03.044Z,7.25
2018-02-17T10:32:05.530Z,7.25
2018-02-17T10:33:08.033Z,6.82
2018-02-17T10:34:10.512Z,7.05
2018-02-17T10:35:12.997Z,7.55
2018-02-17T10:36:15.514Z,7.69
2018-02-17T10:37:18.006Z,7.54
2018-02-17T10:38:20.496Z,7.38
2018-02-17T10:39:22.963Z,7.31
2018-02-17T10:40:25.454Z,7.58
2018-02-17T10:41:27.976Z,7.40
2018-02-17T10:42:30.464Z,7.25
2018-02-17T10:43:32.965Z,6.92
2018-02-17T10:44:35.432Z,7.25
2018-02-17T10:45:37.943Z,7.38
2018-02-17T10:46:40.506Z,7.02
2018-02-17T10:47:43.002Z,6.97
2018-02-17T10:48:45.498Z,6.90
2018-02-17T10:49:47.971Z,6.94
2018-02-17T10:50:50.439Z,6.95
2018-02-17T10:51:52.928Z,7.14
2018-02-17T10:52:55.410Z,7.04
2018-02-17T10:53:57.901Z,7.00
2018-02-17T10:55:00.390Z,7.17
2018-02-17T10:56:02.886Z,7.19
2018-02-17T10:57:05.385Z,7.45
2018-02-17T10:58:07.890Z,7.77
2018-02-17T10:59:10.361Z,7.98
2018-02-17T11:00:12.878Z,7.94
2018-02-17T11:01:15.383Z,8.02
2018-02-17T11:02:17.891Z,7.83
2018-02-17T11:03:20.369Z,8.07
2018-02-17T11:04:22.865Z,8.03
2018-02-17T11:05:25.339Z,8.46
2018-02-17T11:06:27.836Z,8.37
2018-02-17T11:07:30.347Z,8.71
2018-02-17T11:08:32.816Z,8.84
2018-02-17T11:09:35.284Z,9.10
2018-02-17T11:10:37.777Z,9.19
2018-02-17T11:11:40.424Z,8.82
2018-02-17T11:12:42.934Z,8.61
2018-02-17T11:13:45.424Z,8.75
2018-02-17T11:14:48.004Z,8.91
2018-02-17T11:15:50.472Z,8.68
2018-02-17T11:16:53.023Z,8.64
2018-02-17T11:17:55.503Z,9.10
2018-02-17T11:18:57.972Z,9.24
2018-02-17T11:20:00.448Z,9.48
2018-02-17T11:21:02.918Z,9.52
2018-02-17T11:22:05.414Z,9.28
2018-02-17T11:23:07.907Z,9.74
2018-02-17T11:24:10.384Z,9.32
2018-02-17T11:25:12.884Z,9.53
2018-02-17T11:26:15.461Z,9.63
2018-02-17T11:27:17.951Z,9.92
2018-02-17T11:28:20.469Z,10.50
2018-02-17T11:29:22.954Z,11.21
2018-02-17T11:30:25.446Z,11.15
2018-02-17T11:31:27.938Z,11.17
2018-02-17T11:32:30.427Z,11.20
2018-02-17T11:33:32.920Z,11.58
2018-02-17T11:34:35.410Z,11.81
2018-02-17T11:35:37.894Z,11.18
2018-02-17T11:36:40.471Z,11.80
2018-02-17T11:37:42.992Z,12.15
2018-02-17T11:38:45.488Z,13.13
2018-02-17T11:39:47.961Z,13.00
2018-02-17T11:40:50.478Z,13.40
2018-02-17T11:41:52.950Z,12.99
2018-02-17T11:42:55.435Z,11.74
2018-02-17T11:43:57.945Z,12.05
2018-02-17T11:45:00.431Z,12.35
2018-02-17T11:46:02.899Z,12.65
2018-02-17T11:47:05.393Z,13.04
2018-02-17T11:48:07.877Z,12.64
2018-02-17T11:49:10.369Z,13.16
2018-02-17T11:50:12.904Z,12.61
2018-02-17T11:51:15.379Z,12.68
2018-02-17T11:52:17.860Z,12.76
2018-02-17T11:53:20.339Z,13.23
2018-02-17T11:54:22.863Z,13.39
2018-02-17T11:55:25.373Z,13.81
2018-02-17T11:56:27.871Z,14.27
2018-02-17T11:57:30.347Z,13.65
2018-02-17T11:58:32.833Z,13.59
2018-02-17T11:59:35.346Z,13.10
2018-02-17T12:00:37.879Z,13.63
2018-02-17T12:01:40.351Z,12.77
2018-02-17T12:02:42.837Z,13.65
2018-02-17T12:03:45.325Z,13.82
2018-02-17T12:04:47.827Z,12.42
2018-02-17T12:05:50.295Z,13.24
2018-02-17T12:06:52.793Z,13.00
2018-02-17T12:07:55.274Z,13.49
2018-02-17T12:08:57.823Z,13.26
2018-02-17T12:10:00.370Z,13.03
2018-02-17T12:11:02.837Z,12.19
2018-02-17T12:12:05.336Z,11.89
2018-02-17T12:13:07.830Z,11.88
2018-02-17T12:14:10.321Z,12.10
2018-02-17T12:15:12.833Z,11.93
2018-02-17T12:16:15.311Z,11.79
2018-02-17T12:17:17.802Z,11.95
2018-02-17T12:18:20.302Z,12.09
2018-02-17T12:19:22.780Z,11.84
2018-02-17T12:20:25.280Z,11.18
2018-02-17T12:21:27.766Z,10.85
2018-02-17T12:22:30.257Z,11.27
2018-02-17T12:23:32.773Z,11.54
2018-02-17T12:24:35.265Z,12.08
2018-02-17T12:25:37.784Z,11.85
2018-02-17T12:26:40.319Z,11.78
2018-02-17T12:27:42.781Z,11.01
2018-02-17T12:28:45.270Z,10.86
2018-02-17T12:29:47.786Z,10.71
2018-02-17T12:30:50.290Z,10.80
2018-02-17T12:31:52.775Z,10.44
2018-02-17T12:32:56.739Z,10.54
2018-02-17T12:33:59.856Z,11.01
2018-02-17T12:35:02.864Z,10.89
2018-02-17T12:36:05.397Z,10.97
2018-02-17T12:37:07.970Z,10.86
2018-02-17T12:38:10.468Z,11.38
2018-02-17T12:39:13.041Z,11.38
2018-02-17T12:40:15.533Z,11.12
2018-02-17T12:41:18.065Z,11.38
2018-02-17T12:42:20.544Z,11.35
2018-02-17T12:43:23.027Z,11.86
2018-02-17T12:44:25.503Z,12.07
2018-02-17T12:45:28.014Z,12.15
2018-02-17T12:46:30.521Z,12.08
2018-02-17T12:47:33.008Z,12.01
2018-02-17T12:48:35.503Z,12.39
2018-02-17T12:49:38.002Z,12.58
2018-02-17T12:50:40.528Z,13.46
2018-02-17T12:51:43.053Z,13.12
2018-02-17T12:52:45.594Z,14.49
2018-02-17T12:53:48.132Z,14.46
2018-02-17T12:54:50.654Z,14.53
2018-02-17T12:55:53.143Z,14.44
2018-02-17T12:56:55.631Z,15.12
2018-02-17T12:57:58.122Z,15.39
2018-02-17T12:59:00.597Z,16.00
2018-02-17T13:00:03.089Z,17.05
2018-02-17T13:01:05.577Z,16.83
2018-02-17T13:02:08.078Z,17.85
2018-02-17T13:03:10.564Z,18.63
2018-02-17T13:04:13.039Z,19.45
2018-02-17T13:05:15.520Z,18.93
2018-02-17T13:06:18.001Z,18.33
2018-02-17T13:07:20.499Z,18.45
2018-02-17T13:08:22.980Z,19.23
2018-02-17T13:09:25.444Z,19.70
2018-02-17T13:10:27.913Z,21.45
2018-02-17T13:11:30.395Z,21.71
2018-02-17T13:12:32.903Z,21.26
2018-02-17T13:13:35.464Z,20.61
2018-02-17T13:14:37.907Z,20.20
2018-02-17T13:15:40.398Z,18.31
2018-02-17T13:16:42.868Z,17.69
2018-02-17T13:17:45.379Z,19.68
2018-02-17T13:18:47.870Z,20.45
2018-02-17T13:19:50.421Z,19.95
2018-02-17T13:20:52.873Z,20.21
2018-02-17T13:21:55.346Z,20.68
2018-02-17T13:22:57.833Z,19.31
2018-02-17T13:24:00.317Z,20.97
2018-02-17T13:25:02.787Z,21.30
2018-02-17T13:26:05.263Z,21.21
2018-02-17T13:27:07.781Z,19.80
2018-02-17T13:28:10.280Z,20.59
2018-02-17T13:29:12.772Z,20.57
2018-02-17T13:30:15.253Z,19.29
2018-02-17T13:31:17.720Z,19.81
2018-02-17T13:32:20.219Z,19.89
2018-02-17T13:33:22.726Z,19.26
2018-02-17T13:34:25.251Z,19.79
2018-02-17T13:35:27.730Z,19.40
2018-02-17T13:36:30.199Z,21.31
2018-02-17T13:37:32.678Z,20.47
2018-02-17T13:38:35.194Z,19.86
2018-02-17T13:39:37.676Z,18.91
2018-02-17T13:40:40.155Z,19.46
2018-02-17T13:41:42.654Z,20.07
2018-02-17T13:42:45.138Z,19.03
2018-02-17T13:43:47.643Z,18.44
2018-02-17T13:44:50.159Z,18.90
2018-02-17T13:45:52.686Z,20.35
2018-02-17T13:46:55.154Z,19.71
2018-02-17T13:47:57.637Z,20.66
2018-02-17T13:49:00.140Z,19.62
2018-02-17T13:50:02.633Z,20.65
2018-02-17T13:51:05.114Z,21.38
2018-02-17T13:52:07.597Z,21.22
2018-02-17T13:53:10.085Z,21.26
2018-02-17T13:54:12.592Z,20.33
2018-02-17T13:55:15.073Z,21.12
2018-02-17T13:56:17.565Z,22.09
2018-02-17T13:57:20.035Z,22.73
2018-02-17T13:58:22.507Z,23.01
2018-02-17T13:59:25.034Z,20.25
2018-02-17T14:00:27.562Z,20.94
2018-02-17T14:01:30.084Z,18.92
2018-02-17T14:02:32.604Z,19.33
2018-02-17T14:03:35.083Z,18.29
2018-02-17T14:04:37.595Z,15.70
2018-02-17T14:05:40.145Z,15.45
2018-02-17T14:06:42.680Z,16.07
2018-02-17T14:07:45.166Z,15.61
2018-02-17T14:08:47.665Z,15.59
2018-02-17T14:09:50.177Z,15.46
2018-02-17T14:10:52.709Z,15.35
2018-02-17T14:11:55.204Z,15.42
2018-02-17T14:12:57.683Z,15.08
2018-02-17T14:14:00.156Z,15.60
2018-02-17T14:15:02.643Z,15.48
2018-02-17T14:16:05.126Z,15.26
2018-02-17T14:17:07.596Z,14.16
2018-02-17T14:18:10.088Z,12.90
2018-02-17T14:19:12.563Z,12.85
2018-02-17T14:20:15.067Z,12.70
2018-02-17T14:21:17.553Z,12.26
2018-02-17T14:22:20.030Z,12.17
2018-02-17T14:23:22.515Z,12.36
2018-02-17T14:24:25.027Z,12.61
2018-02-17T14:25:27.515Z,12.56
2018-02-17T14:26:30.006Z,12.40
2018-02-17T14:27:32.496Z,12.08
2018-02-17T14:28:34.981Z,11.82
2018-02-17T14:29:37.469Z,11.77
2018-02-17T14:30:39.956Z,11.65
2018-02-17T14:31:42.445Z,11.06
2018-02-17T14:32:44.928Z,11.16
2018-02-17T14:33:47.388Z,11.25
2018-02-17T14:34:49.856Z,11.23
2018-02-17T14:35:52.352Z,10.83
2018-02-17T14:36:54.840Z,10.81
2018-02-17T14:37:57.325Z,10.20
2018-02-17T14:38:59.805Z,10.05
2018-02-17T14:40:02.314Z,10.31
2018-02-17T14:41:04.803Z,9.83
2018-02-17T14:42:07.286Z,9.50
2018-02-17T14:43:09.761Z,9.65
2018-02-17T14:44:12.223Z,9.42
2018-02-17T14:45:14.683Z,9.51
2018-02-17T14:46:17.193Z,9.52
2018-02-17T14:47:19.660Z,9.39
2018-02-17T14:48:22.149Z,9.32
2018-02-17T14:49:24.672Z,8.99
2018-02-17T14:50:27.140Z,8.66
2018-02-17T14:51:29.657Z,8.78
2018-02-17T14:52:32.150Z,8.97
2018-02-17T14:53:34.619Z,9.22
2018-02-17T14:54:37.100Z,9.21
2018-02-17T14:55:39.581Z,9.04
2018-02-17T14:56:42.095Z,8.83
2018-02-17T14:57:44.573Z,9.06
2018-02-17T14:58:47.035Z,9.13
2018-02-17T14:59:49.519Z,9.18
2018-02-17T15:00:52.030Z,8.99
2018-02-17T15:01:54.555Z,8.89
2018-02-17T15:02:57.024Z,8.84
2018-02-17T15:03:59.502Z,8.88
2018-02-17T15:05:01.974Z,9.14
2018-02-17T15:06:04.448Z,9.15
2018-02-17T15:07:07.047Z,9.13
2018-02-17T15:08:09.511Z,9.02
2018-02-17T15:09:11.979Z,8.68
2018-02-17T15:10:14.435Z,9.06
2018-02-17T15:11:16.909Z,9.06
2018-02-17T15:12:19.422Z,8.87
2018-02-17T15:13:21.884Z,8.67
2018-02-17T15:14:24.358Z,8.72
2018-02-17T15:15:26.816Z,8.89
2018-02-17T15:16:29.279Z,9.01
2018-02-17T15:17:31.769Z,8.84
2018-02-17T15:18:34.228Z,8.84
2018-02-17T15:19:36.704Z,8.96
2018-02-17T15:20:39.185Z,9.01
2018-02-17T15:21:41.659Z,9.05
2018-02-17T15:22:44.164Z,9.06
2018-02-17T15:23:46.639Z,9.02
2018-02-17T15:24:49.129Z,8.93
2018-02-17T15:25:51.619Z,8.89
2018-02-17T15:26:54.115Z,8.90
2018-02-17T15:27:56.604Z,8.86
2018-02-17T15:28:59.115Z,8.98
2018-02-17T15:30:01.597Z,8.53
2018-02-17T15:31:04.081Z,8.41
2018-02-17T15:32:06.557Z,8.65
2018-02-17T15:33:09.067Z,8.66
2018-02-17T15:34:11.536Z,8.58
2018-02-17T15:35:14.030Z,8.59
2018-02-17T15:36:16.507Z,8.48
2018-02-17T15:37:19.032Z,8.54
2018-02-17T15:38:21.533Z,8.54
2018-02-17T15:39:24.024Z,8.63
2018-02-17T15:40:26.503Z,8.77
2018-02-17T15:41:28.989Z,8.71
2018-02-17T15:42:31.466Z,8.73
2018-02-17T15:43:33.958Z,8.73
2018-02-17T15:44:36.436Z,8.75
2018-02-17T15:45:38.897Z,8.89
2018-02-17T15:46:41.376Z,8.79
2018-02-17T15:47:43.855Z,8.86
2018-02-17T15:48:46.362Z,8.79
2018-02-17T15:49:48.864Z,8.85
2018-02-17T15:50:51.379Z,8.77
2018-02-17T15:51:53.865Z,8.74
2018-02-17T15:52:56.358Z,8.55
2018-02-17T15:53:58.860Z,8.58
2018-02-17T15:55:01.337Z,8.33
2018-02-17T15:56:03.824Z,8.33
2018-02-17T15:57:06.302Z,8.31
2018-02-17T15:58:08.775Z,8.24
2018-02-17T15:59:11.264Z,8.33
2018-02-17T16:00:13.762Z,8.22
2018-02-17T16:01:16.231Z,8.28
2018-02-17T16:02:18.716Z,8.32
2018-02-17T16:03:21.213Z,8.57
2018-02-17T16:04:23.837Z,8.88
2018-02-17T16:05:26.333Z,9.09
2018-02-17T16:06:28.805Z,9.26
2018-02-17T16:07:31.272Z,9.41
2018-02-17T16:08:33.744Z,9.60
2018-02-17T16:09:36.257Z,9.97
2018-02-17T16:10:38.741Z,10.01
2018-02-17T16:11:41.238Z,10.09
2018-02-17T16:12:43.734Z,10.50
2018-02-17T16:13:46.290Z,10.75
2018-02-17T16:14:48.802Z,10.64
2018-02-17T16:15:51.314Z,10.64
2018-02-17T16:16:53.778Z,10.55
2018-02-17T16:17:56.255Z,10.48
2018-02-17T16:18:58.740Z,10.57
2018-02-17T16:20:01.248Z,11.04
2018-02-17T16:21:03.723Z,11.62
2018-02-17T16:22:06.210Z,12.15
2018-02-17T16:23:08.693Z,12.31
2018-02-17T16:24:11.167Z,12.53
2018-02-17T16:25:13.697Z,12.65
2018-02-17T16:26:16.174Z,12.99
2018-02-17T16:27:18.643Z,12.95
2018-02-17T16:28:21.130Z,12.89
2018-02-17T16:29:23.613Z,12.80
2018-02-17T16:30:26.103Z,12.50
2018-02-17T16:31:28.673Z,11.79
2018-02-17T16:32:31.165Z,11.13
2018-02-17T16:33:33.678Z,10.42
2018-02-17T16:34:36.166Z,9.73
2018-02-17T16:35:38.655Z,9.34
2018-02-17T16:36:41.126Z,9.07
2018-02-17T16:37:43.614Z,8.68
2018-02-17T16:38:46.101Z,8.54
2018-02-17T16:39:48.592Z,8.26
2018-02-17T16:40:51.091Z,8.05
2018-02-17T16:41:53.584Z,7.73
2018-02-17T16:42:56.075Z,7.35
2018-02-17T16:43:58.564Z,7.28
2018-02-17T16:45:01.066Z,6.88
2018-02-17T16:46:03.573Z,6.82
2018-02-17T16:47:06.071Z,6.54
2018-02-17T16:48:08.565Z,6.52
2018-02-17T16:49:11.065Z,6.26
2018-02-17T16:50:13.554Z,6.01
2018-02-17T16:51:16.048Z,5.81
2018-02-17T16:52:18.524Z,5.59
2018-02-17T16:53:21.210Z,5.53
2018-02-17T16:54:23.683Z,5.43
2018-02-17T16:55:26.181Z,5.43
2018-02-17T16:56:28.690Z,5.10
2018-02-17T16:57:31.161Z,4.96
2018-02-17T16:58:33.632Z,4.86
2018-02-17T16:59:36.165Z,4.77
2018-02-17T17:00:38.635Z,4.71
2018-02-17T17:01:41.133Z,4.72
2018-02-17T17:02:43.639Z,4.70
2018-02-17T17:03:46.126Z,4.52
2018-02-17T17:04:48.618Z,4.31
2018-02-17T17:05:51.110Z,4.26
2018-02-17T17:06:53.600Z,4.34
2018-02-17T17:07:56.091Z,4.40
2018-02-17T17:08:58.568Z,4.49
2018-02-17T17:10:01.111Z,4.41
2018-02-17T17:11:03.592Z,4.27
2018-02-17T17:12:06.085Z,4.28
2018-02-17T17:13:08.578Z,4.36
2018-02-17T17:14:11.103Z,4.25
2018-02-17T17:15:13.567Z,4.41
2018-02-17T17:16:16.075Z,4.64
2018-02-17T17:17:19.102Z,4.70
2018-02-17T17:18:21.594Z,4.58
2018-02-17T17:19:24.127Z,4.56
2018-02-17T17:20:26.595Z,4.24
2018-02-17T17:21:29.081Z,4.13
2018-02-17T17:22:31.590Z,3.98
2018-02-17T17:23:34.075Z,4.02
2018-02-17T17:24:36.580Z,4.03
2018-02-17T17:25:39.047Z,3.99
2018-02-17T17:26:41.538Z,4.10
2018-02-17T17:27:44.057Z,4.22
2018-02-17T17:28:46.527Z,4.16
2018-02-17T17:29:49.030Z,4.04
2018-02-17T17:30:51.634Z,4.03
2018-02-17T17:31:54.125Z,3.94
2018-02-17T17:32:56.664Z,3.81
2018-02-17T17:33:59.164Z,3.91
2018-02-17T17:35:01.641Z,3.92
2018-02-17T17:36:04.121Z,3.80
2018-02-17T17:37:06.609Z,3.89
2018-02-17T17:38:09.110Z,3.81
2018-02-17T17:39:11.580Z,3.70
2018-02-17T17:40:14.056Z,3.63
2018-02-17T17:41:16.545Z,3.58
2018-02-17T17:42:19.051Z,3.50
2018-02-17T17:43:21.575Z,3.47
2018-02-17T17:44:24.080Z,3.43
2018-02-17T17:45:26.577Z,3.33
2018-02-17T17:46:29.098Z,3.37
2018-02-17T17:47:31.674Z,3.35
2018-02-17T17:48:34.172Z,3.32
2018-02-17T17:49:36.643Z,3.36
2018-02-17T17:50:39.153Z,3.24
2018-02-17T17:51:41.712Z,3.29
2018-02-17T17:52:44.192Z,3.20
2018-02-17T17:53:46.683Z,3.10
2018-02-17T17:54:49.253Z,3.07
2018-02-17T17:55:51.730Z,3.23
2018-02-17T17:56:54.304Z,3.22
2018-02-17T17:57:56.776Z,3.01
2018-02-17T17:58:59.297Z,3.08
2018-02-17T18:00:01.778Z,3.03
2018-02-17T18:01:04.282Z,3.08
2018-02-17T18:02:06.776Z,3.08
2018-02-17T18:03:09.263Z,3.07
2018-02-17T18:04:11.768Z,3.09
2018-02-17T18:05:14.287Z,3.07
2018-02-17T18:06:16.751Z,2.97
2018-02-17T18:07:19.233Z,3.02
2018-02-17T18:08:21.714Z,2.96
2018-02-17T18:09:24.212Z,2.84
2018-02-17T18:10:26.701Z,2.75
2018-02-17T18:11:29.193Z,2.70
2018-02-17T18:12:31.682Z,2.64
2018-02-17T18:13:34.154Z,2.64
2018-02-17T18:14:36.670Z,2.55
2018-02-17T18:15:39.160Z,2.59
2018-02-17T18:16:41.640Z,2.54
2018-02-17T18:17:44.116Z,2.57
2018-02-17T18:18:46.609Z,2.52
2018-02-17T18:19:49.200Z,2.44
2018-02-17T18:20:51.690Z,2.35
2018-02-17T18:21:54.218Z,2.38
2018-02-17T18:22:56.687Z,2.34
2018-02-17T18:23:59.161Z,2.28
2018-02-17T18:25:01.669Z,2.32
2018-02-17T18:26:04.161Z,2.25
2018-02-17T18:27:06.631Z,2.27
2018-02-17T18:28:09.127Z,2.26
2018-02-17T18:29:11.603Z,2.15
2018-02-17T18:30:14.190Z,1.91
2018-02-17T18:31:16.679Z,1.73
2018-02-17T18:32:19.210Z,1.66
2018-02-17T18:33:21.669Z,1.53
2018-02-17T18:34:24.155Z,1.71
2018-02-17T18:35:26.696Z,1.74
2018-02-17T18:36:29.167Z,1.70
2018-02-17T18:37:31.649Z,2.07
2018-02-17T18:38:34.119Z,2.21
2018-02-17T18:39:36.598Z,2.20
2018-02-17T18:40:39.109Z,2.25
2018-02-17T18:41:41.598Z,2.21
2018-02-17T18:42:44.193Z,2.12
2018-02-17T18:43:46.682Z,2.17
2018-02-17T18:44:49.174Z,2.03
2018-02-17T18:45:51.668Z,1.84
2018-02-17T18:46:54.136Z,1.76
2018-02-17T18:47:56.611Z,1.70
2018-02-17T18:48:59.093Z,1.77
2018-02-17T18:50:01.581Z,1.57
2018-02-17T18:51:04.070Z,1.42
2018-02-17T18:52:06.547Z,1.40
2018-02-17T18:53:09.057Z,1.38
2018-02-17T18:54:11.557Z,1.36
2018-02-17T18:55:14.053Z,1.36
2018-02-17T18:56:16.570Z,1.46
2018-02-17T18:57:19.057Z,1.61
2018-02-17T18:58:21.519Z,1.77
2018-02-17T18:59:23.987Z,1.92
2018-02-17T19:00:26.455Z,1.88
2018-02-17T19:01:28.951Z,1.86
2018-02-17T19:02:31.419Z,1.76
2018-02-17T19:03:33.887Z,1.63
2018-02-17T19:04:36.378Z,1.67
2018-02-17T19:05:38.944Z,1.54
2018-02-17T19:06:41.612Z,1.48
2018-02-17T19:07:44.102Z,1.38
2018-02-17T19:08:46.575Z,1.47
2018-02-17T19:09:49.052Z,1.61
2018-02-17T19:10:51.535Z,1.54
2018-02-17T19:11:54.094Z,1.57
2018-02-17T19:12:56.602Z,1.66
2018-02-17T19:13:59.078Z,1.56
2018-02-17T19:15:01.556Z,1.47
2018-02-17T19:16:04.036Z,1.60
2018-02-17T19:17:06.527Z,1.54
2018-02-17T19:18:08.991Z,1.42
2018-02-17T19:19:11.459Z,1.27
2018-02-17T19:20:13.964Z,1.30
2018-02-17T19:21:16.463Z,1.12
2018-02-17T19:22:18.981Z,1.13
2018-02-17T19:23:21.454Z,1.33
2018-02-17T19:24:23.942Z,1.12
2018-02-17T19:25:26.435Z,0.91
2018-02-17T19:26:28.923Z,0.87
2018-02-17T19:27:31.439Z,0.82
2018-02-17T19:28:33.941Z,0.97
2018-02-17T19:29:37.217Z,1.14
2018-02-17T19:30:39.710Z,1.07
2018-02-17T19:31:42.200Z,1.03
2018-02-17T19:32:44.702Z,1.18
2018-02-17T19:33:47.196Z,1.25
2018-02-17T19:34:49.676Z,1.50
2018-02-17T19:35:52.147Z,1.35
2018-02-17T19:36:54.630Z,1.20
2018-02-17T19:37:57.137Z,1.36
2018-02-17T19:38:59.617Z,1.10
2018-02-17T19:40:02.084Z,0.91
2018-02-17T19:41:04.546Z,0.92
2018-02-17T19:42:07.025Z,0.97
2018-02-17T19:43:09.530Z,1.02
2018-02-17T19:44:12.128Z,1.14
2018-02-17T19:45:14.609Z,1.15
2018-02-17T19:46:17.154Z,0.95
2018-02-17T19:47:19.606Z,0.78
2018-02-17T19:48:22.111Z,0.88
2018-02-17T19:49:24.589Z,1.09
2018-02-17T19:50:27.061Z,0.96
2018-02-17T19:51:29.543Z,0.88
2018-02-17T19:52:32.017Z,0.85